Time;durP1;ratioP1;P1;durP2;ratioP2;P2;SDS_P1;SDS_P2;PMS_P1;PMS_P2;Temp;Humidity;BMP_temperature;BMP_pressure;BME280_temperature;BME280_humidity;BME280_pressure;Samples;Min_cycle;Max_cycle;Signal;HPM_P1;HPM_P2
2021/12/14 00:00:45;;;;;;;8.27;7.00;;;11.60;64.30;;;;;;4963194;28;20442;-56
2021/12/14 00:03:13;;;;;;;9.77;7.30;;;11.40;65.40;;;;;;4967824;28;20613;-56
2021/12/14 00:05:39;;;;;;;8.83;7.17;;;11.40;65.60;;;;;;4963864;28;20439;-56
2021/12/14 00:08:11;;;;;;;8.40;7.13;;;11.50;65.20;;;;;;4969466;28;20454;-56
2021/12/14 00:13:27;;;;;;;8.40;7.40;;;11.20;66.10;;;;;;4964476;28;20439;-55
2021/12/14 00:15:54;;;;;;;8.90;8.00;;;11.20;65.90;;;;;;4961130;28;20199;-56
2021/12/14 00:18:21;;;;;;;10.10;8.20;;;11.10;66.80;;;;;;4969213;28;20442;-55
2021/12/14 00:20:51;;;;;;;10.67;6.87;;;11.10;66.90;;;;;;4962144;28;20835;-56
2021/12/14 00:25:53;;;;;;;10.90;8.53;;;11.10;67.40;;;;;;4967249;28;20465;-55
2021/12/14 00:28:27;;;;;;;8.50;7.20;;;11.30;66.10;;;;;;4966603;28;20486;-55
2021/12/14 00:30:56;;;;;;;7.53;6.37;;;11.30;65.80;;;;;;4963573;28;21000;-56
2021/12/14 00:33:25;;;;;;;8.63;7.37;;;11.30;65.70;;;;;;4971302;28;20453;-56
2021/12/14 00:35:51;;;;;;;9.17;8.17;;;11.10;66.20;;;;;;4962772;28;20447;-56
2021/12/14 00:38:21;;;;;;;10.63;8.10;;;10.80;67.10;;;;;;4965326;28;20522;-56
2021/12/14 00:40:53;;;;;;;8.40;7.27;;;10.70;67.60;;;;;;4964699;28;20501;-56
2021/12/14 00:43:19;;;;;;;11.03;8.87;;;10.70;68.00;;;;;;4966817;28;20486;-56
2021/12/14 00:45:46;;;;;;;10.40;8.87;;;10.60;68.20;;;;;;4970313;28;20445;-56
2021/12/14 00:48:13;;;;;;;9.07;7.67;;;10.80;68.10;;;;;;4973443;28;20286;-56
2021/12/14 00:50:43;;;;;;;9.47;7.83;;;10.90;67.60;;;;;;4964293;28;20446;-55
2021/12/14 00:53:09;;;;;;;15.40;8.77;;;11.00;66.80;;;;;;4962162;28;20490;-57
2021/12/14 00:55:41;;;;;;;10.33;8.70;;;11.20;66.70;;;;;;4967906;28;20481;-56
2021/12/14 00:58:08;;;;;;;9.80;7.73;;;11.40;66.00;;;;;;4963747;28;20191;-56
2021/12/14 01:00:39;;;;;;;8.77;7.60;;;11.30;65.30;;;;;;4968403;28;20451;-56
2021/12/14 01:03:06;;;;;;;8.70;7.70;;;11.10;67.10;;;;;;4964162;28;20537;-53
2021/12/14 01:05:37;;;;;;;9.73;8.27;;;11.20;66.00;;;;;;4958640;28;21553;-56
2021/12/14 01:08:08;;;;;;;9.73;8.73;;;11.10;66.10;;;;;;4961724;28;20452;-55
2021/12/14 01:10:58;;;;;;;8.10;7.10;;;11.10;66.10;;;;;;4968814;28;20450;-56
2021/12/14 01:13:27;;;;;;;8.43;7.17;;;11.20;65.60;;;;;;4966348;28;20529;-56
2021/12/14 01:21:28;;;;;;;8.50;7.60;;;11.20;65.50;;;;;;4961819;28;20442;-56
2021/12/14 01:24:03;;;;;;;9.17;7.40;;;11.40;65.20;;;;;;4962922;28;20450;-56
2021/12/14 01:26:32;;;;;;;9.87;8.00;;;11.50;64.60;;;;;;4964178;28;20492;-56
2021/12/14 01:28:59;;;;;;;8.50;7.20;;;11.60;64.10;;;;;;4968076;28;20487;-56
2021/12/14 01:31:38;;;;;;;8.47;7.67;;;11.70;63.90;;;;;;4971303;28;20533;-56
2021/12/14 01:34:10;;;;;;;8.60;7.70;;;11.80;63.60;;;;;;4968706;28;20454;-56
2021/12/14 01:36:46;;;;;;;9.80;7.77;;;11.70;63.20;;;;;;4961901;28;20447;-56
2021/12/14 01:42:05;;;;;;;8.47;7.37;;;11.50;63.70;;;;;;4967084;28;20497;-55
2021/12/14 01:44:36;;;;;;;8.17;7.37;;;11.20;64.20;;;;;;4959459;28;20513;-55
2021/12/14 01:47:11;;;;;;;8.63;7.70;;;11.20;65.40;;;;;;4965047;28;20454;-56
2021/12/14 01:49:37;;;;;;;8.93;7.70;;;11.20;65.30;;;;;;4971132;28;20449;-56
2021/12/14 01:52:10;;;;;;;9.77;7.67;;;11.00;65.70;;;;;;4964184;28;20538;-56
2021/12/14 01:54:41;;;;;;;8.40;6.70;;;11.10;65.90;;;;;;4960277;28;20450;-56
2021/12/14 01:57:12;;;;;;;10.80;8.20;;;11.10;65.50;;;;;;4958166;28;20458;-55
2021/12/14 01:59:42;;;;;;;9.30;7.27;;;10.80;65.60;;;;;;4963696;28;20846;-54
2021/12/14 02:04:44;;;;;;;9.03;7.93;;;10.40;68.40;;;;;;4968219;28;20446;-55
2021/12/14 02:07:12;;;;;;;11.83;8.70;;;10.60;68.70;;;;;;4963559;28;20486;-55
2021/12/14 02:09:39;;;;;;;8.90;8.00;;;10.50;67.70;;;;;;4965659;28;20461;-56
2021/12/14 02:12:15;;;;;;;10.40;8.17;;;10.40;68.60;;;;;;4961642;28;20450;-56
2021/12/14 02:14:41;;;;;;;11.43;8.57;;;10.40;69.00;;;;;;4966963;28;21150;-56
2021/12/14 02:17:12;;;;;;;13.53;8.67;;;10.30;69.20;;;;;;4966131;28;20443;-56
2021/12/14 02:19:39;;;;;;;12.10;8.63;;;10.40;69.20;;;;;;4964489;28;20207;-56
2021/12/14 02:22:07;;;;;;;11.90;8.47;;;10.40;69.30;;;;;;4967678;28;20503;-55
2021/12/14 02:24:34;;;;;;;10.17;8.30;;;10.40;69.80;;;;;;4966804;28;20560;-56
2021/12/14 02:27:00;;;;;;;11.47;8.00;;;10.70;68.90;;;;;;4966502;28;20478;-56
2021/12/14 02:29:29;;;;;;;10.60;8.10;;;11.00;68.10;;;;;;4962841;28;21005;-55
2021/12/14 02:32:10;;;;;;;9.93;7.50;;;11.00;67.20;;;;;;4967834;28;21053;-56
2021/12/14 02:34:39;;;;;;;10.13;8.03;;;10.90;67.00;;;;;;4962131;28;20449;-55
2021/12/14 02:37:04;;;;;;;10.23;8.00;;;11.00;67.50;;;;;;4965119;28;20469;-56
2021/12/14 02:42:06;;;;;;;11.07;8.43;;;10.70;67.70;;;;;;4963505;28;20226;-57
2021/12/14 02:44:32;;;;;;;16.30;10.00;;;10.80;68.30;;;;;;4963553;28;20454;-56
2021/12/14 02:47:03;;;;;;;11.57;8.33;;;11.00;67.60;;;;;;4970348;28;20488;-56
2021/12/14 02:49:32;;;;;;;9.50;7.93;;;11.20;67.00;;;;;;4969297;28;20465;-57
2021/12/14 02:52:14;;;;;;;11.13;8.57;;;11.20;66.20;;;;;;4965291;28;20780;-56
2021/12/14 02:54:44;;;;;;;13.37;8.63;;;11.20;66.60;;;;;;4965027;28;20450;-56
2021/12/14 02:57:16;;;;;;;12.93;9.97;;;11.00;66.20;;;;;;4965890;28;21913;-56
2021/12/14 02:59:44;;;;;;;14.13;10.33;;;11.00;66.50;;;;;;4969683;28;20446;-56
2021/12/14 03:02:17;;;;;;;14.10;10.97;;;11.00;66.60;;;;;;4966209;28;20486;-57
2021/12/14 03:04:50;;;;;;;14.73;10.20;;;11.10;66.10;;;;;;4969388;28;20450;-56
2021/12/14 03:07:18;;;;;;;15.80;10.03;;;11.00;66.10;;;;;;4967134;28;21291;-56
2021/12/14 03:12:22;;;;;;;16.63;10.80;;;10.80;66.80;;;;;;4967552;28;20457;-57
2021/12/14 03:15:11;;;;;;;12.80;10.00;;;10.80;67.10;;;;;;4966415;28;20489;-56
2021/12/14 03:17:38;;;;;;;17.10;10.27;;;11.00;66.50;;;;;;4970393;28;20454;-57
2021/12/14 03:20:19;;;;;;;17.30;10.63;;;11.10;66.00;;;;;;4964181;28;20489;-56
2021/12/14 03:22:59;;;;;;;16.23;10.40;;;11.30;65.10;;;;;;4964405;28;20490;-56
2021/12/14 03:25:27;;;;;;;12.77;9.57;;;11.10;65.20;;;;;;4969360;28;20950;-57
2021/12/14 03:27:53;;;;;;;12.67;9.20;;;10.90;66.00;;;;;;4968108;28;20486;-56
2021/12/14 03:30:27;;;;;;;14.07;9.10;;;10.90;66.20;;;;;;4966078;28;20458;-55
2021/12/14 03:32:55;;;;;;;12.57;9.07;;;11.00;65.90;;;;;;4969286;28;21005;-56
2021/12/14 03:35:33;;;;;;;15.00;9.87;;;10.90;66.70;;;;;;4963595;28;20446;-56
2021/12/14 03:38:10;;;;;;;13.43;9.97;;;10.90;66.50;;;;;;4964558;28;20457;-56
2021/12/14 03:40:36;;;;;;;16.30;9.77;;;10.70;66.90;;;;;;4970859;28;21320;-56
2021/12/14 03:43:02;;;;;;;12.20;9.10;;;10.60;67.30;;;;;;4972082;28;20525;-56
2021/12/14 03:45:28;;;;;;;12.23;8.90;;;10.80;67.30;;;;;;4967680;28;20446;-56
2021/12/14 03:47:57;;;;;;;15.67;9.00;;;10.90;67.00;;;;;;4971697;28;20447;-56
2021/12/14 03:50:27;;;;;;;10.37;8.80;;;10.90;67.30;;;;;;4968428;28;20583;-56
2021/12/14 03:52:53;;;;;;;10.87;9.00;;;11.00;67.00;;;;;;4972344;28;20443;-55
2021/12/14 03:55:27;;;;;;;12.77;9.10;;;10.90;66.70;;;;;;4964772;28;20465;-56
2021/12/14 03:57:53;;;;;;;13.10;9.03;;;10.60;67.60;;;;;;4964998;28;20194;-56
2021/12/14 04:00:26;;;;;;;14.17;9.10;;;10.50;68.20;;;;;;4971142;28;20439;-56
2021/12/14 04:02:54;;;;;;;12.73;9.20;;;10.60;68.40;;;;;;4968149;28;20862;-56
2021/12/14 04:05:21;;;;;;;13.30;9.70;;;10.80;68.20;;;;;;4963507;28;20438;-57
2021/12/14 04:07:47;;;;;;;12.97;8.83;;;10.90;67.60;;;;;;4965167;28;20454;-55
2021/12/14 04:10:22;;;;;;;15.30;8.83;;;11.10;67.10;;;;;;4969710;28;20445;-56
2021/12/14 04:12:47;;;;;;;11.37;8.87;;;11.20;66.30;;;;;;4962592;28;20485;-56
2021/12/14 04:15:13;;;;;;;10.07;7.97;;;11.30;66.00;;;;;;4965049;28;20451;-55
2021/12/14 04:17:40;;;;;;;13.23;8.60;;;11.30;65.70;;;;;;4962245;28;20196;-56
2021/12/14 04:20:14;;;;;;;12.83;9.10;;;11.40;65.50;;;;;;4961014;28;20196;-57
2021/12/14 04:22:41;;;;;;;10.20;8.03;;;11.50;65.10;;;;;;4960109;28;20541;-57
2021/12/14 04:25:09;;;;;;;12.37;8.20;;;11.60;64.80;;;;;;4963338;28;20442;-56
2021/12/14 04:27:35;;;;;;;9.60;7.50;;;11.50;64.90;;;;;;4965172;28;20466;-56
2021/12/14 04:30:06;;;;;;;9.87;7.87;;;11.50;65.00;;;;;;4964062;28;20516;-56
2021/12/14 04:32:32;;;;;;;10.60;7.63;;;11.30;65.20;;;;;;4968318;28;20438;-56
2021/12/14 04:34:58;;;;;;;10.50;6.80;;;11.40;65.20;;;;;;4965042;28;20965;-56
2021/12/14 04:37:24;;;;;;;10.53;7.40;;;11.40;64.90;;;;;;4958283;28;20665;-56
2021/12/14 04:39:58;;;;;;;8.30;6.20;;;11.50;64.70;;;;;;4957435;28;20547;-57
2021/12/14 04:53:41;;;;;;;7.63;4.53;;;11.00;65.80;;;;;;4962048;28;20549;-56
2021/12/14 04:56:11;;;;;;;8.80;6.43;;;10.80;65.50;;;;;;4964840;28;21111;-56
2021/12/14 04:58:41;;;;;;;8.90;5.57;;;10.60;66.00;;;;;;4960912;28;20858;-56
2021/12/14 05:01:09;;;;;;;6.50;4.80;;;10.80;66.50;;;;;;4961228;28;20443;-54
2021/12/14 05:03:40;;;;;;;5.93;4.37;;;10.80;66.00;;;;;;4965429;28;21033;-56
2021/12/14 05:06:18;;;;;;;8.93;5.60;;;10.70;66.20;;;;;;4967446;28;20424;-56
2021/12/14 05:11:20;;;;;;;6.10;4.97;;;10.50;66.80;;;;;;4962843;28;20442;-56
2021/12/14 05:13:50;;;;;;;7.23;5.30;;;10.40;66.90;;;;;;4958890;28;22316;-56
2021/12/14 05:16:24;;;;;;;8.00;4.90;;;10.40;66.90;;;;;;4957342;28;20498;-56
2021/12/14 05:18:54;;;;;;;7.40;5.10;;;10.30;66.70;;;;;;4958843;28;20914;-54
2021/12/14 05:21:32;;;;;;;6.57;4.40;;;10.20;67.00;;;;;;4962173;28;20439;-56
2021/12/14 05:23:59;;;;;;;6.40;4.57;;;10.40;66.80;;;;;;4961438;28;20458;-56
2021/12/14 05:26:25;;;;;;;5.63;3.90;;;10.50;65.90;;;;;;4956915;28;20481;-56
2021/12/14 05:28:53;;;;;;;5.80;4.10;;;10.50;65.50;;;;;;4967645;28;20548;-55
2021/12/14 05:31:18;;;;;;;6.00;4.80;;;10.40;65.90;;;;;;4961986;28;20447;-56
2021/12/14 05:33:45;;;;;;;6.30;4.93;;;10.20;66.10;;;;;;4967662;28;20988;-52
2021/12/14 05:36:15;;;;;;;6.20;4.80;;;10.10;67.20;;;;;;4965192;28;20234;-56
2021/12/14 05:43:05;;;;;;;6.20;4.30;;;10.10;67.20;;;;;;4963802;28;20914;-56
2021/12/14 05:43:58;;;;;;;5.20;4.20;;;10.00;66.70;;;;;;4957663;28;20466;-57
2021/12/14 05:46:24;;;;;;;8.13;5.20;;;9.70;69.20;;;;;;4966362;28;20521;-56
2021/12/14 05:48:57;;;;;;;8.43;5.50;;;9.60;69.90;;;;;;4968513;28;20431;-55
2021/12/14 05:51:23;;;;;;;7.30;5.40;;;9.50;70.10;;;;;;4965104;28;20498;-56
2021/12/14 05:53:48;;;;;;;7.40;4.87;;;9.50;70.90;;;;;;4966534;28;20443;-56
2021/12/14 05:56:20;;;;;;;8.13;5.60;;;9.50;71.00;;;;;;4960511;28;20583;-56
2021/12/14 05:58:46;;;;;;;8.63;6.20;;;9.60;70.30;;;;;;4960505;28;20206;-55
2021/12/14 06:01:16;;;;;;;8.80;5.43;;;9.80;69.80;;;;;;4962302;28;20458;-56
2021/12/14 06:03:51;;;;;;;9.67;6.10;;;9.60;69.70;;;;;;4963255;28;20467;-55
2021/12/14 06:06:21;;;;;;;8.73;6.47;;;9.60;69.80;;;;;;4961582;28;20474;-54
2021/12/14 06:08:48;;;;;;;7.10;4.83;;;9.60;69.90;;;;;;4963073;28;20455;-56
2021/12/14 06:11:25;;;;;;;6.87;5.17;;;9.70;69.90;;;;;;4967508;28;20504;-56
2021/12/14 06:13:51;;;;;;;8.50;6.00;;;9.90;69.60;;;;;;4962730;28;20490;-55
2021/12/14 06:16:29;;;;;;;9.80;4.90;;;10.00;67.70;;;;;;4964707;28;20465;-55
2021/12/14 06:19:23;;;;;;;8.83;4.07;;;10.10;68.30;;;;;;4968303;28;20438;-55
2021/12/14 06:22:26;;;;;;;5.60;3.70;;;10.40;69.00;;;;;;4962592;28;20933;-53
2021/12/14 06:25:04;;;;;;;7.60;4.57;;;10.70;67.60;;;;;;4946414;28;20457;-56
2021/12/14 06:27:31;;;;;;;8.73;4.13;;;10.80;66.90;;;;;;4965513;28;20632;-56
2021/12/14 06:30:00;;;;;;;7.00;4.60;;;11.00;66.90;;;;;;4973272;28;20457;-55
2021/12/14 06:32:34;;;;;;;5.63;4.37;;;11.20;65.80;;;;;;4971405;28;20442;-56
2021/12/14 06:35:06;;;;;;;7.00;4.90;;;11.30;64.40;;;;;;4967372;28;20469;-56
2021/12/14 06:40:48;;;;;;;5.47;4.17;;;11.30;62.20;;;;;;4973304;28;20454;-56
2021/12/14 06:43:19;;;;;;;4.80;3.40;;;11.40;62.80;;;;;;4973333;28;20521;-54
2021/12/14 06:45:55;;;;;;;7.23;4.23;;;11.30;61.90;;;;;;4976475;28;20436;-56
2021/12/14 06:48:33;;;;;;;5.17;3.70;;;11.40;61.30;;;;;;4975449;28;20522;-56
2021/12/14 06:51:06;;;;;;;5.10;3.23;;;11.20;62.30;;;;;;4972721;28;20481;-55
2021/12/14 06:53:34;;;;;;;5.27;4.10;;;11.30;61.90;;;;;;4964490;28;20431;-55
2021/12/14 06:56:02;;;;;;;5.73;4.07;;;11.10;61.90;;;;;;4974377;28;20429;-56
2021/12/14 06:58:31;;;;;;;5.00;4.00;;;11.40;62.20;;;;;;4973201;28;20438;-55
2021/12/14 07:01:07;;;;;;;4.73;3.60;;;11.40;60.60;;;;;;4972481;28;20443;-55
2021/12/14 07:03:43;;;;;;;3.27;2.97;;;11.40;61.20;;;;;;4973841;28;20536;-55
2021/12/14 07:06:13;;;;;;;4.20;3.60;;;11.20;60.30;;;;;;4975320;28;20496;-55
2021/12/14 07:08:39;;;;;;;5.23;4.20;;;10.70;61.10;;;;;;4972928;28;20447;-56
2021/12/14 07:11:05;;;;;;;8.00;4.57;;;10.40;63.10;;;;;;4973850;28;20442;-55
2021/12/14 07:13:37;;;;;;;6.03;5.43;;;10.30;63.50;;;;;;4974187;28;20439;-56
2021/12/14 07:16:18;;;;;;;5.63;4.60;;;10.30;64.30;;;;;;4973363;28;20457;-55
2021/12/14 07:18:44;;;;;;;7.73;5.50;;;10.10;64.10;;;;;;4973248;28;20505;-53
2021/12/14 07:21:10;;;;;;;7.33;5.23;;;9.60;66.20;;;;;;4974280;28;20431;-55
2021/12/14 07:23:37;;;;;;;7.10;5.60;;;9.40;67.50;;;;;;4974220;28;20310;-55
2021/12/14 07:26:12;;;;;;;7.83;4.90;;;9.00;69.00;;;;;;4974792;28;20195;-55
2021/12/14 07:28:45;;;;;;;8.60;5.80;;;8.90;70.60;;;;;;4977526;28;20505;-56
2021/12/14 07:31:23;;;;;;;9.67;6.43;;;9.10;69.30;;;;;;4966475;28;20513;-54
2021/12/14 07:33:52;;;;;;;7.60;5.83;;;9.20;69.00;;;;;;4972491;28;20493;-53
2021/12/14 07:36:27;;;;;;;7.57;5.33;;;9.00;69.30;;;;;;4966850;28;20481;-55
2021/12/14 07:38:59;;;;;;;8.93;5.90;;;8.80;70.00;;;;;;4974741;28;20438;-55
2021/12/14 07:41:28;;;;;;;7.83;5.30;;;8.50;70.90;;;;;;4972077;28;20505;-55
2021/12/14 07:44:10;;;;;;;7.67;5.50;;;8.70;70.70;;;;;;4971360;28;20454;-56
2021/12/14 07:46:39;;;;;;;10.03;6.80;;;8.70;70.30;;;;;;4964883;28;21183;-55
2021/12/14 07:49:10;;;;;;;8.10;6.40;;;9.10;69.30;;;;;;4967536;28;20475;-56
2021/12/14 07:51:39;;;;;;;11.00;7.13;;;9.20;68.40;;;;;;4968035;28;20634;-53
2021/12/14 07:54:14;;;;;;;10.57;7.60;;;9.60;68.30;;;;;;4970753;28;20501;-55
2021/12/14 07:56:50;;;;;;;8.00;6.00;;;10.00;66.10;;;;;;4969513;28;21906;-54
2021/12/14 07:59:29;;;;;;;7.73;5.97;;;10.20;64.30;;;;;;4973450;28;20946;-55
2021/12/14 08:02:12;;;;;;;6.33;4.87;;;10.20;62.70;;;;;;4970832;28;20616;-56
2021/12/14 08:04:40;;;;;;;8.57;5.30;;;10.10;63.40;;;;;;4971467;28;20550;-56
2021/12/14 08:07:06;;;;;;;5.10;3.90;;;10.20;63.70;;;;;;4966245;28;20446;-56
2021/12/14 08:09:47;;;;;;;6.07;4.90;;;10.50;62.90;;;;;;4971525;28;20809;-56
2021/12/14 08:12:41;;;;;;;5.00;4.40;;;10.80;62.20;;;;;;4968244;28;20438;-56
2021/12/14 08:15:23;;;;;;;7.50;4.80;;;10.80;61.30;;;;;;4969855;28;20442;-52
2021/12/14 08:18:10;;;;;;;5.50;4.07;;;10.90;61.10;;;;;;4963940;28;20450;-58
2021/12/14 08:20:59;;;;;;;5.13;4.63;;;11.10;60.20;;;;;;4971980;28;20430;-52
2021/12/14 08:23:29;;;;;;;4.97;4.40;;;11.20;60.10;;;;;;4968086;28;20495;-53
2021/12/14 08:25:58;;;;;;;4.43;3.80;;;11.40;59.70;;;;;;4968790;28;20475;-57
2021/12/14 08:28:24;;;;;;;5.00;3.73;;;11.50;58.90;;;;;;4970943;28;20474;-56
2021/12/14 08:31:02;;;;;;;4.63;3.90;;;11.40;59.00;;;;;;4969899;28;20470;-56
2021/12/14 08:33:29;;;;;;;5.33;3.90;;;11.60;59.10;;;;;;4969727;28;20454;-56
2021/12/14 08:35:58;;;;;;;5.80;4.40;;;11.70;58.50;;;;;;4970261;28;20460;-50
2021/12/14 08:38:25;;;;;;;5.33;4.20;;;11.70;58.10;;;;;;4968918;28;20446;-53
2021/12/14 08:40:57;;;;;;;5.33;4.13;;;11.80;58.00;;;;;;4967262;28;20986;-52
2021/12/14 08:43:32;;;;;;;4.97;3.73;;;11.70;58.00;;;;;;4967207;28;20494;-51
2021/12/14 08:46:13;;;;;;;4.33;3.57;;;11.70;58.40;;;;;;4967750;28;20457;-52
2021/12/14 08:48:42;;;;;;;5.20;4.60;;;11.90;58.20;;;;;;4972966;28;20450;-51
2021/12/14 08:51:20;;;;;;;7.30;4.93;;;12.00;58.00;;;;;;4967836;28;20474;-51
2021/12/14 08:53:46;;;;;;;5.30;4.50;;;12.10;57.60;;;;;;4968492;28;20780;-51
2021/12/14 08:56:13;;;;;;;5.60;4.60;;;12.20;57.60;;;;;;4961930;28;20453;-58
2021/12/14 08:58:40;;;;;;;7.10;5.00;;;12.30;57.00;;;;;;4970238;28;20191;-53
2021/12/14 09:01:15;;;;;;;8.70;5.60;;;12.30;56.90;;;;;;4968507;28;20569;-58
2021/12/14 09:03:46;;;;;;;6.53;4.70;;;12.40;56.90;;;;;;4968856;28;20929;-56
2021/12/14 09:06:16;;;;;;;4.80;4.20;;;12.40;56.70;;;;;;4962800;28;20435;-54
2021/12/14 09:08:44;;;;;;;6.10;4.67;;;12.30;57.20;;;;;;4961409;28;20442;-57
2021/12/14 09:11:12;;;;;;;5.50;4.03;;;12.30;57.00;;;;;;4971241;28;20441;-59
2021/12/14 09:13:39;;;;;;;5.50;4.30;;;12.20;57.30;;;;;;4966549;28;20436;-57
2021/12/14 09:16:14;;;;;;;5.57;4.20;;;12.20;56.80;;;;;;4969918;28;20434;-58
2021/12/14 09:18:45;;;;;;;7.20;4.60;;;12.20;56.90;;;;;;4970672;28;20902;-58
2021/12/14 09:21:16;;;;;;;6.27;4.70;;;12.00;56.50;;;;;;4967743;28;20485;-57
2021/12/14 09:23:46;;;;;;;4.90;4.40;;;11.70;57.60;;;;;;4969563;28;20499;-57
2021/12/14 09:26:17;;;;;;;5.23;4.20;;;11.90;58.20;;;;;;4966557;28;20496;-58
2021/12/14 09:28:44;;;;;;;6.87;4.57;;;12.20;57.50;;;;;;4967425;28;20502;-57
2021/12/14 09:31:16;;;;;;;6.67;4.87;;;12.40;57.10;;;;;;4969053;28;20443;-57
2021/12/14 09:33:42;;;;;;;6.80;4.80;;;12.60;57.00;;;;;;4968306;28;20596;-57
2021/12/14 09:36:13;;;;;;;6.10;4.80;;;12.70;56.40;;;;;;4968427;28;20445;-58
2021/12/14 09:38:51;;;;;;;5.03;4.00;;;12.70;56.50;;;;;;4969719;28;20438;-58
2021/12/14 09:41:21;;;;;;;5.70;4.33;;;12.60;55.80;;;;;;4969783;28;20545;-58
2021/12/14 09:43:49;;;;;;;4.83;4.33;;;12.80;55.60;;;;;;4969461;28;20540;-57
2021/12/14 09:46:17;;;;;;;4.20;3.80;;;12.90;55.60;;;;;;4969786;28;20431;-58
2021/12/14 09:48:48;;;;;;;7.10;4.07;;;13.10;56.10;;;;;;4969517;28;20462;-57
2021/12/14 09:51:20;;;;;;;4.57;3.60;;;13.10;55.50;;;;;;4968413;28;20442;-58
2021/12/14 09:53:52;;;;;;;4.90;4.43;;;13.30;55.20;;;;;;4968404;28;20804;-58
2021/12/14 09:56:21;;;;;;;4.43;4.03;;;13.40;54.80;;;;;;4966548;28;20441;-58
2021/12/14 09:58:59;;;;;;;6.00;4.60;;;13.40;54.60;;;;;;4966144;28;20450;-57
2021/12/14 10:01:35;;;;;;;5.07;4.23;;;13.50;54.80;;;;;;4968510;28;20543;-58
2021/12/14 10:04:06;;;;;;;4.40;3.93;;;13.40;54.30;;;;;;4967418;28;20454;-58
2021/12/14 10:06:33;;;;;;;5.13;4.27;;;13.40;54.30;;;;;;4966567;28;20434;-58
2021/12/14 10:09:05;;;;;;;4.70;4.20;;;13.40;54.50;;;;;;4967517;28;20498;-58
2021/12/14 10:11:49;;;;;;;5.70;4.67;;;13.50;54.40;;;;;;4962277;28;21002;-55
2021/12/14 10:14:18;;;;;;;4.90;4.37;;;13.50;54.30;;;;;;4961282;28;20446;-54
2021/12/14 10:16:44;;;;;;;4.10;3.70;;;13.50;53.80;;;;;;4963797;28;20483;-56
2021/12/14 10:19:14;;;;;;;5.20;4.70;;;13.40;53.90;;;;;;4966986;28;20798;-55
2021/12/14 10:21:46;;;;;;;4.60;4.20;;;13.40;54.40;;;;;;4967899;28;20494;-56
2021/12/14 10:24:11;;;;;;;6.10;4.10;;;13.40;54.50;;;;;;4968023;28;20435;-52
2021/12/14 10:26:41;;;;;;;4.60;4.20;;;13.50;54.20;;;;;;4962913;28;20849;-56
2021/12/14 10:29:07;;;;;;;4.70;4.30;;;13.50;54.20;;;;;;4968410;28;20205;-55
2021/12/14 10:31:40;;;;;;;4.50;4.10;;;13.60;54.20;;;;;;4967045;28;20446;-56
2021/12/14 10:34:17;;;;;;;5.47;4.43;;;13.70;54.10;;;;;;4966832;28;20434;-55
2021/12/14 10:36:48;;;;;;;5.53;4.80;;;13.60;53.80;;;;;;4966416;28;20911;-54
2021/12/14 10:44:50;;;;;;;7.00;4.80;;;13.70;53.70;;;;;;4965769;28;20449;-55
2021/12/14 10:47:18;;;;;;;4.93;4.47;;;13.70;53.70;;;;;;4968962;28;20435;-54
2021/12/14 10:49:44;;;;;;;5.37;4.50;;;13.80;53.60;;;;;;4967625;28;20468;-53
2021/12/14 10:52:16;;;;;;;5.60;4.47;;;13.80;53.60;;;;;;4969076;28;20442;-54
2021/12/14 10:54:46;;;;;;;6.17;4.80;;;13.80;53.60;;;;;;4968074;28;20490;-55
2021/12/14 10:57:16;;;;;;;4.90;4.30;;;13.80;53.80;;;;;;4962895;28;20432;-53
2021/12/14 10:59:44;;;;;;;5.37;4.43;;;13.80;53.30;;;;;;4967111;28;20437;-56
2021/12/14 11:02:10;;;;;;;5.80;4.40;;;13.90;53.30;;;;;;4970294;28;20873;-53
2021/12/14 11:04:51;;;;;;;5.67;4.60;;;13.90;53.20;;;;;;4970301;28;20435;-55
2021/12/14 11:07:41;;;;;;;4.77;4.30;;;13.90;53.40;;;;;;4966708;28;21092;-54
2021/12/14 11:10:34;;;;;;;5.60;5.10;;;14.00;53.30;;;;;;4970720;28;20546;-55
2021/12/14 11:13:08;;;;;;;5.57;5.07;;;14.00;53.40;;;;;;4973423;28;20438;-54
2021/12/14 11:15:45;;;;;;;5.57;5.10;;;14.10;53.90;;;;;;4969349;28;20445;-54
2021/12/14 11:18:15;;;;;;;6.40;5.53;;;14.10;54.00;;;;;;4972523;28;20449;-55
2021/12/14 11:20:51;;;;;;;5.47;4.93;;;14.10;53.90;;;;;;4973826;28;20538;-56
2021/12/14 11:23:40;;;;;;;7.80;6.20;;;14.20;53.80;;;;;;4968294;28;20497;-54
2021/12/14 11:26:15;;;;;;;7.53;5.40;;;14.20;53.80;;;;;;4971941;28;20435;-55
2021/12/14 11:28:42;;;;;;;6.63;6.03;;;14.30;53.90;;;;;;4974056;28;20606;-55
2021/12/14 11:31:18;;;;;;;6.60;5.43;;;14.40;53.60;;;;;;4971428;28;20553;-55
2021/12/14 11:33:55;;;;;;;5.60;4.90;;;14.40;53.50;;;;;;4974226;28;20913;-55
2021/12/14 11:36:24;;;;;;;6.50;5.47;;;14.50;53.30;;;;;;4969133;28;20478;-54
2021/12/14 11:38:56;;;;;;;6.43;5.83;;;14.40;53.30;;;;;;4962628;28;20807;-55
2021/12/14 11:41:28;;;;;;;8.07;5.87;;;14.50;53.30;;;;;;4963917;28;20494;-51
2021/12/14 11:44:14;;;;;;;6.33;5.63;;;14.60;53.20;;;;;;4970574;28;20483;-51
2021/12/14 11:46:54;;;;;;;8.30;6.00;;;14.60;53.30;;;;;;4970805;28;20439;-53
2021/12/14 11:49:22;;;;;;;6.27;5.67;;;14.40;52.80;;;;;;4961294;28;20474;-52
2021/12/14 11:51:49;;;;;;;8.53;6.87;;;14.40;53.20;;;;;;4972581;28;20454;-53
2021/12/14 11:54:19;;;;;;;6.10;5.50;;;14.30;53.80;;;;;;4972975;28;20427;-50
2021/12/14 11:56:44;;;;;;;6.90;5.87;;;14.30;53.90;;;;;;4969041;28;20485;-51
2021/12/14 11:59:11;;;;;;;6.90;5.50;;;14.40;54.00;;;;;;4964692;28;20681;-53
2021/12/14 12:01:51;;;;;;;7.10;6.40;;;14.30;53.80;;;;;;4970225;28;20584;-51
2021/12/14 12:04:21;;;;;;;6.40;5.77;;;14.30;53.90;;;;;;4971458;28;20455;-52
2021/12/14 12:09:28;;;;;;;7.70;6.80;;;14.30;53.90;;;;;;4967501;28;20442;-50
2021/12/14 12:12:08;;;;;;;7.50;6.70;;;14.30;53.80;;;;;;4973330;28;20455;-52
2021/12/14 12:14:45;;;;;;;7.70;6.10;;;14.30;53.80;;;;;;4968139;28;20434;-51
2021/12/14 12:17:32;;;;;;;8.30;6.77;;;14.40;53.80;;;;;;4972161;28;20438;-50
2021/12/14 12:20:06;;;;;;;6.57;5.97;;;14.40;53.50;;;;;;4970220;28;20434;-50
2021/12/14 12:22:43;;;;;;;7.23;6.53;;;14.40;53.70;;;;;;4970032;28;20580;-50
2021/12/14 12:25:19;;;;;;;7.10;6.00;;;14.40;54.10;;;;;;4970892;28;20434;-52
2021/12/14 12:27:54;;;;;;;8.60;7.70;;;14.40;54.40;;;;;;4972701;28;20484;-52
2021/12/14 12:30:35;;;;;;;11.40;7.00;;;14.30;54.30;;;;;;4971611;28;20482;-52
2021/12/14 12:33:21;;;;;;;9.00;8.03;;;14.30;54.10;;;;;;4970004;28;20447;-51
2021/12/14 12:35:58;;;;;;;8.63;7.63;;;14.30;54.10;;;;;;4966129;28;20454;-53
2021/12/14 12:38:41;;;;;;;9.73;8.00;;;14.40;54.50;;;;;;4972584;28;20609;-51
2021/12/14 12:41:26;;;;;;;10.87;7.53;;;14.30;54.50;;;;;;4970204;28;20469;-50
2021/12/14 12:43:54;;;;;;;8.27;7.47;;;14.30;55.00;;;;;;4970961;28;20573;-50
2021/12/14 12:46:54;;;;;;;7.10;6.40;;;14.30;55.30;;;;;;4968421;28;20434;-51
2021/12/14 12:49:29;;;;;;;8.40;7.27;;;14.30;55.70;;;;;;4965638;28;20852;-51
2021/12/14 12:52:19;;;;;;;8.63;7.20;;;14.50;56.10;;;;;;4968761;28;20457;-52
2021/12/14 12:54:51;;;;;;;8.87;7.80;;;14.70;55.10;;;;;;4965679;28;20474;-50
2021/12/14 12:57:28;;;;;;;10.47;7.80;;;14.80;54.70;;;;;;4969394;28;20443;-50
2021/12/14 12:59:57;;;;;;;7.20;6.40;;;14.90;54.10;;;;;;4970474;28;20446;-50
2021/12/14 13:02:36;;;;;;;7.50;6.47;;;15.00;54.10;;;;;;4968195;28;20501;-51
2021/12/14 13:05:26;;;;;;;8.43;7.03;;;15.00;54.10;;;;;;4969406;28;20442;-51
2021/12/14 13:08:05;;;;;;;8.27;7.40;;;15.00;53.90;;;;;;4966543;28;20505;-52
2021/12/14 13:10:40;;;;;;;10.00;6.93;;;15.10;53.90;;;;;;4965576;28;20493;-50
2021/12/14 13:13:11;;;;;;;8.90;7.97;;;15.00;53.80;;;;;;4967914;28;20805;-50
2021/12/14 13:15:49;;;;;;;10.97;8.83;;;15.10;53.90;;;;;;4968477;28;21048;-50
2021/12/14 13:18:17;;;;;;;9.60;8.70;;;15.10;53.70;;;;;;4968078;28;20780;-51
2021/12/14 13:20:44;;;;;;;9.27;8.37;;;15.10;53.60;;;;;;4965777;28;20446;-48
2021/12/14 13:23:10;;;;;;;8.57;7.67;;;15.20;53.40;;;;;;4967716;28;20490;-51
2021/12/14 13:25:39;;;;;;;8.93;8.13;;;15.10;53.60;;;;;;4969374;28;20593;-51
2021/12/14 13:28:07;;;;;;;9.27;8.37;;;15.00;53.50;;;;;;4971163;28;20470;-51
2021/12/14 13:30:33;;;;;;;9.83;8.73;;;15.00;53.80;;;;;;4968813;28;20513;-52
2021/12/14 13:32:59;;;;;;;9.17;8.27;;;15.00;53.80;;;;;;4970307;28;20590;-51
2021/12/14 13:35:32;;;;;;;9.90;8.83;;;15.00;53.90;;;;;;4968977;28;20652;-51
2021/12/14 13:38:05;;;;;;;12.03;9.63;;;15.10;53.90;;;;;;4966100;28;20199;-51
2021/12/14 13:40:40;;;;;;;10.33;9.20;;;15.00;53.70;;;;;;4963050;28;20460;-50
2021/12/14 13:43:11;;;;;;;12.47;9.00;;;15.00;53.90;;;;;;4967709;28;20494;-51
2021/12/14 13:45:42;;;;;;;10.60;9.27;;;14.90;54.00;;;;;;4970885;28;21008;-52
2021/12/14 13:48:10;;;;;;;10.97;8.73;;;15.00;54.20;;;;;;4966274;28;20466;-51
2021/12/14 13:50:40;;;;;;;10.93;8.37;;;15.00;54.20;;;;;;4967399;28;20443;-51
2021/12/14 13:53:07;;;;;;;14.13;8.30;;;15.00;54.10;;;;;;4965709;28;20446;-48
2021/12/14 13:55:39;;;;;;;10.50;9.07;;;15.10;53.90;;;;;;4967623;28;20449;-48
2021/12/14 13:58:16;;;;;;;10.40;9.07;;;15.00;53.70;;;;;;4968003;28;20438;-50